METAR Data
IDs: Format: Raw Decoded Include TAF

Data at: 2058 UTC 13 Nov 2019

METAR for:KCKP (Cherokee Cnty, IA, US)
Text:KCKP 132055Z AUTO 29003KT 10SM OVC050 03/M01 A2994 RMK AO2 T00281008
Temperature: 2.8°C ( 37°F)
Dewpoint: -0.8°C ( 31°F) [RH = 77%]
Pressure (altimeter):29.94 inches Hg (1014.0 mb)
Winds:from the WNW (290 degrees) at 3 MPH (3 knots; 1.5 m/s)
Visibility:10 or more sm (16+ km)
Ceiling:5000 feet AGL
Clouds: overcast cloud deck at 5000 feet AGL
QC Flag:automated observation with no human augmentation